Time;durP1;ratioP1;P1;durP2;ratioP2;P2;SDS_P1;SDS_P2;PMS_P1;PMS_P2;Temp;Humidity;BMP_temperature;BMP_pressure;BME280_temperature;BME280_humidity;BME280_pressure;Samples;Min_cycle;Max_cycle;Signal;HPM_P1;HPM_P2
2022/01/20 00:00:55;;;;;;;41.50;38.33;;;6.90;99.90;;;;;;5003753;28;20265;-79
2022/01/20 00:03:30;;;;;;;41.17;37.53;;;6.90;99.90;;;;;;4971084;28;20183;-79
2022/01/20 00:08:55;;;;;;;41.00;38.00;;;7.00;99.90;;;;;;5004728;28;20187;-79
2022/01/20 00:27:38;;;;;;;46.03;43.10;;;6.70;99.90;;;;;;5005155;28;20267;-80
2022/01/20 00:38:24;;;;;;;41.90;39.07;;;6.80;99.90;;;;;;4985989;28;20205;-78
2022/01/20 00:40:54;;;;;;;40.43;37.13;;;6.80;99.90;;;;;;5003811;28;20196;-78
2022/01/20 00:43:20;;;;;;;40.83;37.97;;;6.90;99.90;;;;;;5003115;28;20213;-79
2022/01/20 00:45:47;;;;;;;41.13;37.57;;;6.90;99.90;;;;;;5001390;28;20200;-79
2022/01/20 00:48:23;;;;;;;42.80;39.20;;;6.80;99.90;;;;;;4987427;28;20176;-78
2022/01/20 00:50:49;;;;;;;38.63;35.57;;;6.80;99.90;;;;;;4966764;28;20227;-78
2022/01/20 00:53:15;;;;;;;41.33;38.27;;;6.70;99.90;;;;;;5001357;28;20187;-78
2022/01/20 00:55:41;;;;;;;41.87;37.97;;;6.70;99.90;;;;;;5000594;28;20280;-79
2022/01/20 00:58:07;;;;;;;41.67;38.40;;;6.60;99.90;;;;;;5001495;28;20211;-77
2022/01/20 01:00:34;;;;;;;42.00;38.73;;;6.70;99.90;;;;;;4992626;28;20188;-78
2022/01/20 01:03:00;;;;;;;41.80;39.07;;;6.70;99.90;;;;;;5001474;28;20241;-78
2022/01/20 01:05:27;;;;;;;41.40;37.67;;;6.70;99.90;;;;;;5000782;28;20689;-78
2022/01/20 01:07:55;;;;;;;41.23;37.60;;;6.70;99.90;;;;;;4990491;28;20219;-79
2022/01/20 01:10:27;;;;;;;41.40;37.93;;;6.70;99.90;;;;;;5003151;28;20708;-78
2022/01/20 01:13:15;;;;;;;40.67;37.00;;;6.60;99.90;;;;;;5000078;28;20192;-78
2022/01/20 01:15:45;;;;;;;39.83;36.60;;;6.60;99.90;;;;;;5001443;28;20785;-79
2022/01/20 01:23:36;;;;;;;43.30;39.60;;;6.60;99.90;;;;;;5003202;28;20230;-78
2022/01/20 01:26:13;;;;;;;41.13;37.73;;;6.80;99.90;;;;;;5000213;28;20269;-78
2022/01/20 01:28:40;;;;;;;39.43;35.70;;;6.80;99.90;;;;;;5001221;28;20239;-77
2022/01/20 01:33:49;;;;;;;36.87;33.23;;;6.80;99.90;;;;;;5003195;28;20207;-77
2022/01/20 01:36:18;;;;;;;34.53;31.33;;;6.90;99.90;;;;;;5002163;28;20187;-78
2022/01/20 01:38:44;;;;;;;36.53;33.20;;;6.80;99.90;;;;;;5000202;28;20188;-79
2022/01/20 01:41:14;;;;;;;36.97;34.67;;;6.80;99.90;;;;;;4986143;28;20188;-79
2022/01/20 01:43:46;;;;;;;36.67;33.70;;;6.70;99.90;;;;;;5001189;28;20199;-77
2022/01/20 01:46:14;;;;;;;37.17;34.30;;;6.60;99.90;;;;;;5000726;28;20195;-79
2022/01/20 01:48:41;;;;;;;35.70;33.33;;;6.50;99.90;;;;;;4999418;28;20196;-78
2022/01/20 01:51:08;;;;;;;34.70;32.30;;;6.50;99.90;;;;;;4984607;28;20284;-77
2022/01/20 01:53:34;;;;;;;35.67;33.30;;;6.50;99.90;;;;;;5000977;28;20195;-78
2022/01/20 01:56:01;;;;;;;34.70;32.13;;;6.40;99.90;;;;;;5000399;28;20259;-78
2022/01/20 01:58:27;;;;;;;33.57;30.93;;;6.40;99.90;;;;;;4981226;28;20583;-78
2022/01/20 02:00:52;;;;;;;31.30;28.70;;;6.40;99.90;;;;;;5000629;28;20195;-80
2022/01/20 02:03:18;;;;;;;29.53;27.33;;;6.50;99.90;;;;;;4983283;28;20199;-80
2022/01/20 02:06:03;;;;;;;28.57;25.63;;;6.50;99.90;;;;;;5001104;28;20238;-79
2022/01/20 02:08:38;;;;;;;30.80;25.87;;;6.60;99.90;;;;;;4999543;28;20302;-79
2022/01/20 02:19:18;;;;;;;24.47;22.10;;;6.80;99.90;;;;;;5002043;28;20199;-79
2022/01/20 02:21:46;;;;;;;24.33;22.27;;;6.80;99.90;;;;;;4997951;28;20658;-79
2022/01/20 02:24:11;;;;;;;24.77;22.30;;;6.80;99.90;;;;;;5000315;28;20201;-80
2022/01/20 02:26:37;;;;;;;23.50;21.17;;;6.80;99.90;;;;;;4999601;28;20556;-81
2022/01/20 02:29:04;;;;;;;23.10;20.87;;;6.80;99.90;;;;;;4983597;28;20229;-79
2022/01/20 02:31:31;;;;;;;27.07;21.07;;;6.70;99.90;;;;;;5001086;28;20204;-80
2022/01/20 02:33:58;;;;;;;24.13;20.37;;;6.70;99.90;;;;;;5001718;28;20311;-80
2022/01/20 02:36:23;;;;;;;22.50;20.27;;;6.70;99.90;;;;;;5001137;28;20191;-79
2022/01/20 02:39:01;;;;;;;25.93;20.13;;;6.60;99.90;;;;;;4971934;28;20562;-80
2022/01/20 02:46:56;;;;;;;22.83;19.03;;;6.60;99.90;;;;;;5005320;28;20215;-79
2022/01/20 02:49:22;;;;;;;26.87;17.47;;;6.70;99.90;;;;;;4986324;28;20738;-79
2022/01/20 02:51:50;;;;;;;26.07;16.53;;;6.70;99.90;;;;;;5005079;28;20236;-79
2022/01/20 02:54:17;;;;;;;25.07;17.40;;;6.70;99.90;;;;;;5001989;28;20199;-79
2022/01/20 02:56:43;;;;;;;32.60;17.47;;;6.80;99.90;;;;;;5003463;28;20184;-80
2022/01/20 02:59:08;;;;;;;31.73;17.97;;;6.80;99.90;;;;;;4968164;28;20196;-80
2022/01/20 03:01:34;;;;;;;25.93;17.20;;;6.90;99.90;;;;;;4999509;28;20200;-80
2022/01/20 03:04:02;;;;;;;29.50;16.93;;;6.80;99.90;;;;;;4999872;28;20192;-79
2022/01/20 03:06:27;;;;;;;19.47;17.07;;;6.90;99.90;;;;;;5000025;28;20230;-79
2022/01/20 03:08:53;;;;;;;36.70;16.70;;;6.90;99.90;;;;;;5001357;28;20202;-80
2022/01/20 03:11:19;;;;;;;28.37;18.20;;;6.80;99.90;;;;;;4999524;28;20204;-79
2022/01/20 03:13:44;;;;;;;30.83;18.43;;;6.70;99.90;;;;;;5000135;28;20297;-80
2022/01/20 03:16:10;;;;;;;32.63;17.93;;;6.80;99.90;;;;;;5000390;28;20195;-80
2022/01/20 03:18:36;;;;;;;29.10;19.23;;;6.70;99.90;;;;;;4999953;28;20204;-78
2022/01/20 03:21:02;;;;;;;29.23;19.37;;;6.70;99.90;;;;;;5000343;28;20281;-80
2022/01/20 03:23:27;;;;;;;32.33;20.93;;;6.60;99.90;;;;;;5002111;28;20294;-80
2022/01/20 03:25:53;;;;;;;27.07;20.93;;;6.60;99.90;;;;;;5001231;28;20275;-80
2022/01/20 03:28:19;;;;;;;24.50;21.33;;;6.50;99.90;;;;;;5005796;28;20244;-80
2022/01/20 03:30:45;;;;;;;34.10;21.63;;;6.60;99.90;;;;;;5003130;28;20196;-80
2022/01/20 03:33:11;;;;;;;24.03;20.83;;;6.50;99.90;;;;;;5001885;28;20200;-80
2022/01/20 03:35:37;;;;;;;30.17;21.20;;;6.60;99.90;;;;;;4984247;28;20219;-78
2022/01/20 03:38:03;;;;;;;28.03;20.03;;;6.60;99.90;;;;;;5002211;28;20219;-80
2022/01/20 03:40:29;;;;;;;32.67;19.30;;;6.70;99.90;;;;;;5004530;28;20389;-80
2022/01/20 03:42:55;;;;;;;23.40;18.53;;;6.70;99.90;;;;;;4988061;28;20318;-79
2022/01/20 03:45:25;;;;;;;29.33;19.87;;;6.80;99.90;;;;;;5001707;28;20747;-80
2022/01/20 03:47:54;;;;;;;31.17;20.27;;;6.70;99.90;;;;;;5001962;28;20207;-79
2022/01/20 03:53:05;;;;;;;22.50;18.60;;;6.70;99.90;;;;;;5002183;28;20389;-77
2022/01/20 03:55:30;;;;;;;20.87;17.53;;;6.70;99.90;;;;;;5001237;28;20199;-78
2022/01/20 03:57:56;;;;;;;29.13;18.57;;;6.70;99.90;;;;;;5002638;28;20212;-78
2022/01/20 04:00:22;;;;;;;31.17;18.60;;;6.70;99.90;;;;;;4984002;28;20200;-77
2022/01/20 04:02:49;;;;;;;23.33;17.63;;;6.70;99.90;;;;;;5001379;28;20192;-78
2022/01/20 04:05:16;;;;;;;28.00;21.37;;;6.70;99.90;;;;;;5005682;28;20222;-78
2022/01/20 04:07:41;;;;;;;35.30;32.73;;;6.60;99.90;;;;;;5003225;28;20195;-77
2022/01/20 04:10:08;;;;;;;42.27;39.17;;;6.50;99.90;;;;;;5003274;28;20191;-78
2022/01/20 04:12:33;;;;;;;52.63;48.70;;;6.40;99.90;;;;;;5003785;28;20207;-78
2022/01/20 04:15:06;;;;;;;58.97;55.57;;;6.30;99.90;;;;;;4994231;28;20226;-78
2022/01/20 04:17:32;;;;;;;65.23;60.83;;;6.20;99.90;;;;;;5003387;28;20191;-77
2022/01/20 04:19:58;;;;;;;73.50;69.03;;;6.10;99.90;;;;;;5002200;28;20191;-78
2022/01/20 04:22:26;;;;;;;75.13;70.63;;;6.10;99.90;;;;;;5003192;28;20388;-78
2022/01/20 04:24:52;;;;;;;76.33;72.17;;;6.10;99.90;;;;;;5003395;28;20217;-78
2022/01/20 04:27:18;;;;;;;75.57;71.20;;;6.10;99.90;;;;;;5002775;28;20208;-78
2022/01/20 04:29:43;;;;;;;76.10;71.93;;;6.10;99.90;;;;;;5002824;28;20204;-78
2022/01/20 04:32:09;;;;;;;75.47;71.10;;;6.10;99.90;;;;;;5002582;28;20211;-78
2022/01/20 04:34:34;;;;;;;81.13;76.30;;;6.10;99.90;;;;;;5001085;28;20281;-79
2022/01/20 04:37:04;;;;;;;94.97;89.80;;;6.00;99.90;;;;;;4999460;28;20199;-78
2022/01/20 04:39:32;;;;;;;115.90;109.57;;;6.00;99.90;;;;;;5003974;28;20199;-78
2022/01/20 04:41:58;;;;;;;144.57;136.50;;;6.00;99.90;;;;;;4984836;28;20211;-77
2022/01/20 04:44:41;;;;;;;158.07;149.83;;;6.00;99.90;;;;;;5003024;28;20250;-78
2022/01/20 04:57:31;;;;;;;177.63;168.30;;;5.70;99.90;;;;;;4990096;28;20216;-79
2022/01/20 04:59:56;;;;;;;173.03;163.87;;;5.70;99.90;;;;;;4987388;28;20735;-78
2022/01/20 05:02:25;;;;;;;374.73;352.73;;;5.70;99.90;;;;;;5006461;28;20318;-78
2022/01/20 05:04:52;;;;;;;429.33;401.43;;;5.70;99.90;;;;;;5004416;28;20208;-77
2022/01/20 05:07:22;;;;;;;436.33;407.20;;;5.60;99.90;;;;;;4986987;28;20515;-78
2022/01/20 05:09:48;;;;;;;428.17;400.93;;;5.40;99.90;;;;;;4989309;28;20275;-78
2022/01/20 05:12:18;;;;;;;402.07;377.33;;;5.30;99.90;;;;;;4988536;28;20634;-77
2022/01/20 05:14:43;;;;;;;405.50;381.20;;;5.10;99.90;;;;;;4973721;28;20184;-78
2022/01/20 05:17:09;;;;;;;406.20;380.93;;;5.10;99.90;;;;;;5010563;28;20250;-77
2022/01/20 05:19:35;;;;;;;392.93;368.73;;;5.00;99.90;;;;;;5009037;28;20231;-78
2022/01/20 05:22:01;;;;;;;385.83;362.43;;;5.00;99.90;;;;;;5007359;28;20785;-77
2022/01/20 05:24:27;;;;;;;378.27;354.47;;;4.90;99.90;;;;;;5006833;28;20210;-77
2022/01/20 05:26:54;;;;;;;357.07;335.13;;;4.90;99.90;;;;;;5008179;28;20199;-78
2022/01/20 05:29:21;;;;;;;350.50;329.30;;;4.90;99.90;;;;;;5005441;28;20203;-77
2022/01/20 05:31:48;;;;;;;348.23;327.40;;;4.90;99.90;;;;;;4999876;28;20290;-79
2022/01/20 05:34:15;;;;;;;334.00;313.73;;;4.90;99.90;;;;;;5002157;28;20183;-78
2022/01/20 05:36:42;;;;;;;324.47;304.60;;;4.90;99.90;;;;;;4998569;28;20187;-78
2022/01/20 05:39:08;;;;;;;315.10;296.57;;;4.90;99.90;;;;;;5001707;28;20287;-77
2022/01/20 05:41:34;;;;;;;308.23;290.13;;;4.90;99.90;;;;;;4989723;28;20196;-77
2022/01/20 05:43:59;;;;;;;305.63;286.80;;;5.00;99.90;;;;;;4983250;28;20207;-77
2022/01/20 05:46:33;;;;;;;294.07;276.20;;;4.90;99.90;;;;;;5000379;28;20211;-77
2022/01/20 05:49:08;;;;;;;308.63;289.43;;;5.00;99.90;;;;;;5001692;28;20217;-79
2022/01/20 05:51:39;;;;;;;303.67;285.23;;;5.00;99.90;;;;;;5002094;28;20232;-78
2022/01/20 05:54:06;;;;;;;296.63;278.17;;;5.00;99.90;;;;;;5000141;28;20228;-78
2022/01/20 05:56:32;;;;;;;285.93;267.97;;;5.00;99.90;;;;;;4997616;28;20217;-77
2022/01/20 05:58:59;;;;;;;290.57;272.37;;;5.00;99.90;;;;;;4967871;28;20557;-77
2022/01/20 06:01:25;;;;;;;280.93;263.93;;;5.10;99.90;;;;;;4981850;28;20211;-77
2022/01/20 06:03:51;;;;;;;277.63;261.00;;;5.10;99.90;;;;;;4999309;28;21055;-77
2022/01/20 06:06:17;;;;;;;263.90;248.30;;;5.20;99.90;;;;;;4984776;28;20362;-78
2022/01/20 06:08:43;;;;;;;260.43;245.73;;;5.20;99.90;;;;;;4999625;28;20191;-78
2022/01/20 06:11:09;;;;;;;239.60;226.47;;;5.30;99.90;;;;;;4999046;28;20194;-78
2022/01/20 06:13:35;;;;;;;226.97;214.73;;;5.30;99.90;;;;;;5002087;28;20312;-76
2022/01/20 06:16:03;;;;;;;220.60;209.37;;;5.30;99.90;;;;;;5003445;28;20286;-78
2022/01/20 06:18:29;;;;;;;208.07;196.67;;;5.40;99.90;;;;;;5003885;28;20727;-77
2022/01/20 06:20:55;;;;;;;219.17;207.90;;;5.40;99.90;;;;;;4988769;28;20407;-77
2022/01/20 06:23:22;;;;;;;364.50;345.40;;;5.40;99.90;;;;;;5003945;28;20206;-78
2022/01/20 06:25:48;;;;;;;362.03;342.87;;;5.30;99.90;;;;;;5001524;28;20233;-79
2022/01/20 06:28:15;;;;;;;361.27;342.43;;;5.20;99.90;;;;;;4998500;28;20213;-77
2022/01/20 06:30:41;;;;;;;362.50;341.87;;;5.00;99.90;;;;;;4984991;28;20207;-78
2022/01/20 06:33:07;;;;;;;363.20;343.03;;;4.90;99.90;;;;;;5000360;28;20181;-79
2022/01/20 06:35:33;;;;;;;359.87;339.70;;;4.80;99.90;;;;;;4997902;28;20187;-76
2022/01/20 06:37:59;;;;;;;337.90;319.23;;;4.90;99.90;;;;;;5002184;28;20805;-77
2022/01/20 06:40:25;;;;;;;298.33;282.47;;;4.80;99.90;;;;;;5002659;28;20195;-77
2022/01/20 06:42:51;;;;;;;278.13;263.63;;;4.80;99.90;;;;;;5000453;28;20215;-79
2022/01/20 06:45:19;;;;;;;256.47;243.00;;;4.80;99.90;;;;;;4997222;28;20210;-78
2022/01/20 06:47:44;;;;;;;248.80;235.83;;;4.90;99.90;;;;;;4999586;28;20630;-78
2022/01/20 06:50:12;;;;;;;250.77;237.90;;;4.90;99.90;;;;;;4984178;28;20274;-79
2022/01/20 06:52:39;;;;;;;239.53;227.07;;;4.80;99.90;;;;;;4996560;28;20227;-76
2022/01/20 06:55:07;;;;;;;227.23;215.77;;;4.80;99.90;;;;;;4979704;28;20530;-78
2022/01/20 06:57:38;;;;;;;226.83;214.90;;;4.80;99.90;;;;;;4997524;28;20704;-77
2022/01/20 07:00:09;;;;;;;217.37;205.90;;;4.80;99.90;;;;;;4981085;28;20207;-78
2022/01/20 07:02:35;;;;;;;212.67;201.53;;;4.70;99.90;;;;;;4979714;28;20191;-78
2022/01/20 07:05:01;;;;;;;197.00;187.43;;;4.70;99.90;;;;;;4981739;28;20227;-78
2022/01/20 07:07:26;;;;;;;188.40;179.13;;;4.70;99.90;;;;;;4984473;28;20547;-77
2022/01/20 07:09:52;;;;;;;187.87;178.53;;;4.60;99.90;;;;;;4967638;28;20204;-78
2022/01/20 07:12:18;;;;;;;180.17;171.40;;;4.60;99.90;;;;;;4994631;28;20213;-76
2022/01/20 07:14:43;;;;;;;169.83;160.93;;;4.60;99.90;;;;;;4979599;28;20192;-78
2022/01/20 07:17:09;;;;;;;157.73;149.20;;;4.60;99.90;;;;;;4979727;28;20196;-78
2022/01/20 07:19:35;;;;;;;154.43;146.60;;;4.60;99.90;;;;;;4954212;28;20201;-79
2022/01/20 07:22:01;;;;;;;145.80;138.73;;;4.70;99.90;;;;;;4992972;28;20257;-79
2022/01/20 07:24:28;;;;;;;134.37;127.40;;;4.70;99.90;;;;;;4993837;28;20188;-79
2022/01/20 07:26:54;;;;;;;123.60;117.30;;;4.80;99.90;;;;;;4979783;28;20227;-79
2022/01/20 07:29:20;;;;;;;124.77;117.97;;;4.90;99.90;;;;;;4964273;28;20310;-79
2022/01/20 07:31:46;;;;;;;101.70;96.27;;;4.90;99.90;;;;;;4996654;28;20193;-79
2022/01/20 07:34:11;;;;;;;88.93;84.33;;;4.90;99.90;;;;;;4980276;28;20533;-78
2022/01/20 07:36:37;;;;;;;88.03;83.50;;;4.90;99.90;;;;;;4979941;28;20192;-79
2022/01/20 07:39:03;;;;;;;78.17;73.73;;;4.90;99.90;;;;;;4967747;28;20223;-79
2022/01/20 07:41:29;;;;;;;73.70;69.70;;;4.90;99.90;;;;;;4964368;28;20192;-78
2022/01/20 07:43:55;;;;;;;70.97;66.53;;;5.00;99.90;;;;;;4982976;28;20307;-79
2022/01/20 07:46:21;;;;;;;64.43;60.73;;;4.90;99.90;;;;;;4975822;28;20207;-79
2022/01/20 07:48:46;;;;;;;59.23;55.07;;;4.90;99.90;;;;;;4977834;28;20197;-79
2022/01/20 07:51:12;;;;;;;54.43;50.93;;;4.90;99.90;;;;;;4998265;28;20252;-79
2022/01/20 07:53:38;;;;;;;48.30;45.00;;;5.00;99.90;;;;;;4978531;28;20262;-79
2022/01/20 07:56:08;;;;;;;40.57;37.93;;;5.10;99.90;;;;;;4980542;28;20200;-79
2022/01/20 07:58:35;;;;;;;40.97;37.90;;;5.00;99.90;;;;;;4995696;28;20220;-78
2022/01/20 08:01:02;;;;;;;35.10;32.50;;;4.90;99.90;;;;;;4978414;28;20219;-78
2022/01/20 08:03:27;;;;;;;32.80;29.73;;;4.80;99.90;;;;;;4961716;28;20227;-79
2022/01/20 08:05:53;;;;;;;27.10;24.90;;;4.80;99.90;;;;;;4976216;28;20243;-79
2022/01/20 08:08:19;;;;;;;25.83;23.80;;;4.70;99.90;;;;;;4988367;28;20275;-79
2022/01/20 08:10:45;;;;;;;26.83;24.80;;;4.60;99.90;;;;;;4999007;28;20244;-80
2022/01/20 08:13:10;;;;;;;27.37;25.03;;;4.60;99.90;;;;;;4968790;28;20272;-79
2022/01/20 08:15:36;;;;;;;26.47;23.93;;;4.60;99.90;;;;;;4981863;28;20231;-78
2022/01/20 08:18:03;;;;;;;26.03;24.20;;;4.60;99.90;;;;;;4966722;28;20180;-78
2022/01/20 08:20:29;;;;;;;28.47;26.17;;;4.60;99.90;;;;;;4983940;28;20197;-80
2022/01/20 08:22:54;;;;;;;28.87;26.20;;;4.70;99.90;;;;;;4981902;28;20655;-78
2022/01/20 08:25:20;;;;;;;31.90;24.60;;;4.80;99.90;;;;;;4983374;28;20219;-80
2022/01/20 08:27:47;;;;;;;26.13;23.43;;;4.90;99.90;;;;;;4981731;28;20205;-78
2022/01/20 08:30:18;;;;;;;24.07;21.03;;;5.00;99.90;;;;;;4997035;28;20689;-79
2022/01/20 08:32:45;;;;;;;26.13;23.60;;;5.10;99.90;;;;;;5002078;28;20173;-79
2022/01/20 08:35:12;;;;;;;24.20;21.90;;;5.20;99.90;;;;;;4978720;28;21206;-78
2022/01/20 08:37:40;;;;;;;24.17;21.90;;;5.70;99.90;;;;;;4997963;28;20315;-80
2022/01/20 08:40:09;;;;;;;23.77;21.33;;;5.90;99.90;;;;;;5000734;28;20243;-79
2022/01/20 08:42:35;;;;;;;21.40;19.60;;;5.80;99.90;;;;;;5002235;28;20293;-78
2022/01/20 08:45:01;;;;;;;18.87;16.97;;;5.80;99.90;;;;;;4983155;28;20309;-79
2022/01/20 08:47:27;;;;;;;24.80;15.90;;;5.70;99.90;;;;;;4968456;28;20184;-78
2022/01/20 08:49:52;;;;;;;19.70;14.03;;;5.60;99.90;;;;;;4980682;28;20188;-79
2022/01/20 08:52:19;;;;;;;24.23;13.30;;;5.50;99.90;;;;;;4983734;28;20257;-78
2022/01/20 08:54:47;;;;;;;19.33;11.60;;;5.50;99.90;;;;;;4980023;28;20188;-79
2022/01/20 08:57:13;;;;;;;15.60;11.40;;;5.50;99.90;;;;;;4982064;28;20222;-79
2022/01/20 08:59:41;;;;;;;21.30;10.87;;;5.50;99.90;;;;;;4999867;28;20196;-78
2022/01/20 09:02:08;;;;;;;17.37;10.03;;;5.50;99.90;;;;;;4999476;28;20177;-78
2022/01/20 09:04:34;;;;;;;20.27;9.30;;;5.60;99.90;;;;;;4964853;28;20196;-77
2022/01/20 09:07:00;;;;;;;18.83;9.53;;;5.60;99.90;;;;;;4982648;28;20198;-79
2022/01/20 09:09:26;;;;;;;19.73;7.93;;;5.70;99.90;;;;;;4997534;28;20614;-79
2022/01/20 09:12:14;;;;;;;19.07;8.73;;;5.70;99.90;;;;;;4981837;28;20208;-79
2022/01/20 09:17:26;;;;;;;17.57;7.70;;;6.00;99.90;;;;;;4987491;28;20530;-79
2022/01/20 09:19:52;;;;;;;14.57;7.40;;;6.00;99.90;;;;;;4987905;28;20643;-79
2022/01/20 09:22:19;;;;;;;16.77;6.50;;;5.80;99.90;;;;;;4988236;28;20196;-79
2022/01/20 09:24:46;;;;;;;18.80;6.90;;;5.70;99.90;;;;;;4997312;28;20231;-78
2022/01/20 09:27:13;;;;;;;17.20;6.67;;;5.70;99.90;;;;;;4982275;28;20211;-79
2022/01/20 09:29:39;;;;;;;19.50;6.57;;;5.70;99.90;;;;;;4980771;28;20303;-78
2022/01/20 09:32:07;;;;;;;13.13;5.30;;;5.80;99.90;;;;;;4998041;28;20299;-79
2022/01/20 09:34:33;;;;;;;12.43;5.47;;;6.00;99.90;;;;;;4999772;28;20196;-79
2022/01/20 09:36:58;;;;;;;11.97;5.03;;;6.10;99.90;;;;;;4979657;28;20196;-79
2022/01/20 09:39:24;;;;;;;16.93;5.50;;;6.30;99.90;;;;;;4997616;28;20276;-79
2022/01/20 09:41:50;;;;;;;18.43;5.17;;;6.20;99.90;;;;;;4984822;28;20203;-79
2022/01/20 09:44:16;;;;;;;15.87;4.20;;;6.20;99.90;;;;;;4981667;28;20247;-80
2022/01/20 09:46:44;;;;;;;19.57;4.47;;;6.20;99.90;;;;;;4987987;28;20208;-79
2022/01/20 09:49:11;;;;;;;16.63;3.77;;;6.10;99.90;;;;;;4981913;28;20196;-79
2022/01/20 09:51:39;;;;;;;17.33;4.10;;;5.90;99.90;;;;;;4999409;28;20239;-79
2022/01/20 09:54:05;;;;;;;14.00;4.10;;;5.80;99.90;;;;;;4970298;28;20187;-79
2022/01/20 09:56:31;;;;;;;21.60;5.23;;;5.90;99.90;;;;;;4989652;28;20283;-78
2022/01/20 09:58:57;;;;;;;16.43;3.87;;;6.10;99.90;;;;;;4998775;28;20215;-78
2022/01/20 10:01:43;;;;;;;17.13;3.77;;;6.30;99.90;;;;;;4984656;28;20249;-80
2022/01/20 10:04:22;;;;;;;18.43;3.53;;;6.40;99.90;;;;;;4988465;28;20678;-79
2022/01/20 10:07:09;;;;;;;10.53;3.47;;;6.30;99.90;;;;;;5001233;28;20522;-79
2022/01/20 10:09:48;;;;;;;19.30;3.77;;;6.30;99.90;;;;;;4987468;28;20192;-78
2022/01/20 10:12:16;;;;;;;15.07;4.20;;;6.10;99.90;;;;;;5003661;28;20321;-79
2022/01/20 10:14:44;;;;;;;12.57;4.77;;;5.90;99.90;;;;;;4997749;28;20686;-79
2022/01/20 10:17:31;;;;;;;16.20;5.00;;;5.70;99.90;;;;;;5000654;28;20613;-79
2022/01/20 10:20:09;;;;;;;15.70;5.47;;;5.50;99.90;;;;;;5001205;28;20187;-79
2022/01/20 10:22:36;;;;;;;12.03;5.73;;;5.50;99.90;;;;;;4984103;28;20565;-79
2022/01/20 10:25:14;;;;;;;16.47;6.60;;;5.40;99.90;;;;;;5001043;28;20211;-78
2022/01/20 10:27:50;;;;;;;26.93;8.10;;;5.30;99.90;;;;;;5001623;28;20269;-78
2022/01/20 10:30:16;;;;;;;19.87;8.40;;;5.30;99.90;;;;;;5002270;28;20206;-79
2022/01/20 10:32:54;;;;;;;16.43;8.83;;;5.30;99.90;;;;;;4986039;28;20577;-79
2022/01/20 10:35:26;;;;;;;19.33;9.33;;;5.30;99.90;;;;;;4985707;28;20211;-79
2022/01/20 10:38:00;;;;;;;16.43;9.13;;;5.40;99.90;;;;;;4983432;28;20196;-79
2022/01/20 10:40:26;;;;;;;24.90;10.03;;;5.40;99.90;;;;;;5001273;28;20184;-79
2022/01/20 10:42:52;;;;;;;20.07;9.50;;;5.50;99.90;;;;;;5001576;28;20216;-79
2022/01/20 10:45:24;;;;;;;18.27;8.80;;;5.70;99.90;;;;;;4984183;28;20211;-78
2022/01/20 10:47:53;;;;;;;12.07;7.80;;;5.90;99.90;;;;;;5001566;28;20190;-79
2022/01/20 10:50:24;;;;;;;12.17;6.90;;;6.00;99.90;;;;;;5001192;28;20287;-77
2022/01/20 10:52:52;;;;;;;20.77;8.07;;;6.10;99.90;;;;;;4992213;28;20264;-78
2022/01/20 10:55:28;;;;;;;15.43;7.40;;;6.10;99.90;;;;;;4956177;28;20248;-77
2022/01/20 10:57:55;;;;;;;16.23;7.50;;;6.10;99.90;;;;;;4975762;28;20299;-79
2022/01/20 11:00:25;;;;;;;18.30;7.10;;;6.20;99.90;;;;;;4992374;28;20202;-79
2022/01/20 11:02:57;;;;;;;18.53;6.93;;;6.20;99.90;;;;;;4982108;28;20197;-79
2022/01/20 11:05:24;;;;;;;17.47;6.30;;;6.40;99.90;;;;;;4977281;28;20327;-79
2022/01/20 11:07:51;;;;;;;17.63;5.17;;;6.60;99.90;;;;;;4992922;28;20193;-78
2022/01/20 11:10:18;;;;;;;14.77;4.80;;;6.60;99.90;;;;;;4977638;28;20651;-80
2022/01/20 11:12:44;;;;;;;13.17;4.80;;;6.70;99.90;;;;;;4961750;28;20284;-79
2022/01/20 11:15:14;;;;;;;13.00;3.60;;;6.60;99.90;;;;;;4960208;28;20206;-78
2022/01/20 11:17:42;;;;;;;13.73;3.63;;;6.70;99.90;;;;;;4963467;28;20261;-77
2022/01/20 11:20:16;;;;;;;12.53;4.13;;;6.70;99.90;;;;;;4977723;28;20201;-78
2022/01/20 11:23:03;;;;;;;12.20;3.80;;;6.60;99.90;;;;;;4960646;28;20427;-80
2022/01/20 11:25:35;;;;;;;18.20;3.60;;;6.70;99.90;;;;;;4959954;28;20212;-80
2022/01/20 11:28:27;;;;;;;15.57;3.30;;;6.70;99.90;;;;;;4963470;28;20273;-79
2022/01/20 11:30:56;;;;;;;15.53;3.63;;;6.80;99.90;;;;;;4980031;28;20593;-79
2022/01/20 11:33:35;;;;;;;6.90;3.10;;;7.00;99.90;;;;;;4964511;28;20200;-79
2022/01/20 11:36:03;;;;;;;13.47;3.63;;;7.10;99.90;;;;;;4966422;28;20193;-78
2022/01/20 11:38:48;;;;;;;15.10;3.47;;;7.10;99.90;;;;;;4993672;28;20188;-79
2022/01/20 11:41:16;;;;;;;8.67;3.10;;;7.10;99.90;;;;;;4960879;28;20193;-78
2022/01/20 11:43:48;;;;;;;18.87;3.77;;;7.10;99.90;;;;;;4968579;28;20209;-78
2022/01/20 11:46:23;;;;;;;15.70;3.40;;;7.00;99.90;;;;;;4963098;28;20263;-78
2022/01/20 11:49:01;;;;;;;14.17;3.53;;;6.90;99.90;;;;;;4965677;28;20548;-79
2022/01/20 11:51:50;;;;;;;16.10;2.77;;;6.80;99.90;;;;;;4966559;28;20188;-79
2022/01/20 11:54:26;;;;;;;17.27;3.47;;;6.60;99.90;;;;;;5006330;28;20202;-79
2022/01/20 11:57:05;;;;;;;11.43;3.20;;;6.50;99.90;;;;;;5004012;28;20215;-79
2022/01/20 11:59:40;;;;;;;14.60;3.17;;;6.40;99.90;;;;;;5003757;28;20198;-79
2022/01/20 12:02:06;;;;;;;13.70;3.80;;;6.40;99.90;;;;;;5005256;28;20213;-77
2022/01/20 12:04:34;;;;;;;8.93;2.90;;;6.40;99.90;;;;;;4985522;28;20564;-79
2022/01/20 12:07:01;;;;;;;15.43;3.80;;;6.60;99.90;;;;;;5001986;28;20230;-78
2022/01/20 12:09:34;;;;;;;11.50;3.03;;;6.80;99.90;;;;;;5001519;28;20214;-78
2022/01/20 12:12:25;;;;;;;14.23;3.00;;;7.00;99.90;;;;;;5003106;28;20703;-79
2022/01/20 12:14:51;;;;;;;13.00;3.10;;;7.00;99.90;;;;;;5004100;28;20179;-79
2022/01/20 12:17:17;;;;;;;7.87;2.40;;;7.10;99.90;;;;;;4976248;28;20199;-80
2022/01/20 12:19:52;;;;;;;15.27;2.93;;;7.10;99.90;;;;;;5003135;28;20277;-81
2022/01/20 12:22:20;;;;;;;12.23;3.23;;;7.20;99.90;;;;;;5003334;28;20247;-79
2022/01/20 12:24:54;;;;;;;17.50;3.60;;;7.30;99.90;;;;;;4993772;28;20649;-79
2022/01/20 12:27:23;;;;;;;15.40;3.13;;;7.40;99.90;;;;;;4999495;28;20601;-78
2022/01/20 12:29:49;;;;;;;7.30;2.37;;;7.40;99.90;;;;;;4986846;28;20239;-79
2022/01/20 12:32:18;;;;;;;10.53;2.50;;;7.40;99.90;;;;;;5002918;28;20278;-78
2022/01/20 12:34:55;;;;;;;6.07;1.93;;;7.40;99.90;;;;;;5003783;28;20357;-80
2022/01/20 12:37:21;;;;;;;7.23;1.63;;;7.40;99.90;;;;;;4970427;28;20769;-78
2022/01/20 12:39:46;;;;;;;8.17;2.00;;;7.30;99.90;;;;;;5001173;28;20287;-80
2022/01/20 12:42:12;;;;;;;14.73;2.50;;;7.10;99.90;;;;;;4985009;28;20227;-79
2022/01/20 12:45:00;;;;;;;5.20;1.43;;;7.00;99.90;;;;;;4988456;28;20200;-79
2022/01/20 12:47:30;;;;;;;11.43;2.03;;;6.80;99.90;;;;;;5002553;28;20193;-78
2022/01/20 12:49:57;;;;;;;13.97;2.03;;;6.70;99.90;;;;;;5003273;28;20287;-79
2022/01/20 12:52:23;;;;;;;13.53;2.13;;;6.70;99.90;;;;;;4968967;28;20780;-79
2022/01/20 12:54:50;;;;;;;11.70;2.33;;;6.70;99.90;;;;;;5001372;28;20940;-79
2022/01/20 12:57:16;;;;;;;11.33;2.37;;;6.90;99.90;;;;;;4982830;28;20635;-80
2022/01/20 12:59:45;;;;;;;15.20;2.93;;;7.00;99.90;;;;;;5001916;28;20646;-79
2022/01/20 13:02:23;;;;;;;13.27;3.03;;;7.20;99.90;;;;;;4982198;28;20196;-78
2022/01/20 13:04:56;;;;;;;11.87;2.23;;;7.20;99.90;;;;;;4981840;28;20208;-78
2022/01/20 13:07:22;;;;;;;18.00;2.73;;;7.30;99.90;;;;;;5002679;28;20206;-78
2022/01/20 13:09:59;;;;;;;11.90;2.50;;;7.40;99.90;;;;;;4984571;28;20200;-79
2022/01/20 13:12:38;;;;;;;20.97;2.90;;;7.40;99.90;;;;;;5002749;28;20183;-79
2022/01/20 13:15:06;;;;;;;11.07;2.23;;;7.30;99.90;;;;;;5000823;28;20239;-80
2022/01/20 13:17:34;;;;;;;10.63;2.07;;;7.20;99.90;;;;;;5006005;28;20247;-78
2022/01/20 13:20:10;;;;;;;12.77;2.47;;;7.00;99.90;;;;;;4983896;28;20184;-80
2022/01/20 13:22:43;;;;;;;12.97;2.40;;;7.00;99.90;;;;;;5000097;28;20947;-79
2022/01/20 13:25:15;;;;;;;16.10;1.90;;;7.00;99.90;;;;;;4976582;28;20211;-79
2022/01/20 13:27:55;;;;;;;13.40;2.77;;;7.10;99.90;;;;;;4985879;28;20247;-78
2022/01/20 13:30:29;;;;;;;9.03;2.20;;;7.00;99.90;;;;;;5004129;28;20215;-79
2022/01/20 13:32:56;;;;;;;9.33;1.63;;;7.00;99.90;;;;;;4986268;28;20630;-79
2022/01/20 13:35:23;;;;;;;11.73;2.13;;;6.90;99.90;;;;;;5002290;28;20184;-79
2022/01/20 13:38:01;;;;;;;12.33;1.83;;;6.80;99.90;;;;;;4998067;28;20215;-79
2022/01/20 13:40:27;;;;;;;6.80;1.93;;;6.70;99.90;;;;;;5002855;28;20214;-79
2022/01/20 13:45:45;;;;;;;9.73;2.10;;;6.60;99.90;;;;;;4986717;28;20211;-79
2022/01/20 13:48:13;;;;;;;14.53;7.03;;;6.70;99.90;;;;;;5003471;28;20183;-80
2022/01/20 13:50:42;;;;;;;16.47;14.73;;;6.50;99.90;;;;;;5004224;28;20234;-79